KATT

Austin City Airport

Austin, Texas, USA
METAR KATT 240251Z AUTO 00000KT 10SM OVC026 23/19 A2992 RMK AO2 SLP123 T02330189 53012 $
Observed Flight Rules
Sep-24 @ 02:51 UTC (60 minutes ago) Marginal Visual Flight Rules
Visibility Clouds
10 miles
  • Overcast at 2,600' AGL
Temperatures Readings
Current 23°C / 73°F
Dewpoint 19°C / 66°F
Humidity 78%
Altimeter 29.92" Hg
Pressure 1012.3 hPa
Elevation 201
METAR KATT 240251Z AUTO 00000KT 10SM OVC026 23/19 A2992 RMK AO2 SLP123 T02330189 53012 $
Observed Flight Rules
Sep-24 @ 02:51 UTC
(60 minutes ago)
MVFR
Clouds
  • Overcast at 2,600' AGL
Temperature Dewpoint
23°C / 73°F 19°C / 66°F
Humidity Altimeter Pressure
78% 29.92" Hg 1012.3 hPa